Time;durP1;ratioP1;P1;durP2;ratioP2;P2;SDS_P1;SDS_P2;PMS_P1;PMS_P2;Temp;Humidity;BMP_temperature;BMP_pressure;BME280_temperature;BME280_humidity;BME280_pressure;Samples;Min_cycle;Max_cycle;Signal;HPM_P1;HPM_P2
2021/10/07 00:01:10;;;;;;;11.68;2.92;;;;;;;13.14;74.03;102092.72;5054117;28;20055;-65
2021/10/07 00:03:52;;;;;;;14.48;3.20;;;;;;;13.35;73.07;102092.13;5030375;28;20374;-65
2021/10/07 00:06:20;;;;;;;16.17;3.47;;;;;;;13.11;73.87;102093.31;5035456;28;20054;-65
2021/10/07 00:08:48;;;;;;;10.63;2.42;;;;;;;13.06;74.65;102096.13;5037436;28;20505;-65
2021/10/07 00:11:16;;;;;;;10.88;3.25;;;;;;;13.11;74.43;102090.56;5035804;28;20057;-63
2021/10/07 00:13:44;;;;;;;14.68;2.70;;;;;;;13.05;74.77;102100.03;5037064;28;20048;-64
2021/10/07 00:16:14;;;;;;;12.10;2.63;;;;;;;12.90;74.89;102102.97;5038451;28;20072;-64
2021/10/07 00:18:42;;;;;;;20.83;2.92;;;;;;;12.91;75.62;102107.34;5035689;28;20072;-65
2021/10/07 00:21:18;;;;;;;13.18;2.97;;;;;;;12.55;76.53;102100.59;5020447;28;20696;-67
2021/10/07 00:23:59;;;;;;;11.10;2.42;;;;;;;12.56;77.46;102103.06;5037467;28;20045;-64
2021/10/07 00:26:27;;;;;;;12.30;2.85;;;;;;;12.63;77.08;102106.31;5037193;28;20076;-64
2021/10/07 00:28:58;;;;;;;11.50;2.72;;;;;;;12.54;77.94;102098.94;5037097;28;20057;-65
2021/10/07 00:31:29;;;;;;;17.77;4.20;;;;;;;12.41;78.22;102106.00;5037319;28;20060;-65
2021/10/07 00:34:09;;;;;;;10.23;2.00;;;;;;;12.52;77.72;102098.44;5037376;28;20053;-66
2021/10/07 00:39:04;;;;;;;14.68;2.60;;;;;;;12.73;76.59;102108.13;5042667;28;20057;-65
2021/10/07 00:41:33;;;;;;;13.32;3.10;;;;;;;12.81;76.20;102111.09;5056802;28;20049;-65
2021/10/07 00:44:08;;;;;;;12.77;2.63;;;;;;;12.74;76.68;102116.16;5057005;28;20053;-64
2021/10/07 00:46:58;;;;;;;12.65;2.45;;;;;;;12.63;77.02;102117.38;5055863;28;20048;-64
2021/10/07 00:49:27;;;;;;;9.10;2.50;;;;;;;12.65;77.14;102117.91;5056877;28;20150;-64
2021/10/07 00:51:55;;;;;;;11.52;2.38;;;;;;;12.61;77.40;102121.53;5055536;28;20060;-64
2021/10/07 00:54:24;;;;;;;10.50;2.22;;;;;;;12.82;76.81;102112.72;5057045;28;20045;-64
2021/10/07 00:56:52;;;;;;;10.82;2.35;;;;;;;12.95;75.83;102119.47;5054635;28;20063;-65
2021/10/07 00:59:20;;;;;;;12.63;2.33;;;;;;;12.76;77.16;102111.13;5056566;28;20048;-65
2021/10/07 01:01:47;;;;;;;12.43;2.58;;;;;;;12.80;76.74;102114.13;5055180;28;20051;-65
2021/10/07 01:04:14;;;;;;;8.77;2.75;;;;;;;12.55;77.23;102123.53;5032074;28;20050;-64
2021/10/07 01:06:42;;;;;;;11.68;3.75;;;;;;;12.46;77.92;102114.25;5016887;28;20434;-64
2021/10/07 01:09:15;;;;;;;16.08;2.78;;;;;;;12.50;78.11;102117.25;4999465;28;20050;-65
2021/10/07 01:11:42;;;;;;;15.77;2.92;;;;;;;12.56;77.96;102111.34;5015354;28;20062;-64
2021/10/07 01:14:09;;;;;;;15.77;3.25;;;;;;;12.68;77.42;102109.00;5016379;28;20049;-65
2021/10/07 01:16:37;;;;;;;12.43;3.10;;;;;;;12.61;77.87;102102.19;5016674;28;20050;-64
2021/10/07 01:19:04;;;;;;;11.77;2.70;;;;;;;12.71;77.62;102107.63;5014320;28;20056;-66
2021/10/07 01:21:31;;;;;;;10.80;2.50;;;;;;;12.35;78.82;102115.44;5016773;28;20057;-65
2021/10/07 01:23:59;;;;;;;12.13;2.88;;;;;;;12.25;79.21;102108.09;5016615;28;20042;-65
2021/10/07 01:26:26;;;;;;;13.10;3.05;;;;;;;12.27;79.81;102110.56;5016391;28;20061;-65
2021/10/07 01:28:54;;;;;;;9.23;2.45;;;;;;;12.36;79.34;102111.59;5016310;28;20050;-64
2021/10/07 01:31:21;;;;;;;15.13;2.97;;;;;;;12.23;79.59;102115.00;5016191;28;20072;-64
2021/10/07 01:33:48;;;;;;;17.38;3.08;;;;;;;12.12;80.63;102113.44;5016292;28;20060;-64
2021/10/07 01:36:16;;;;;;;12.95;2.55;;;;;;;11.99;81.10;102109.44;5016317;28;20069;-64
2021/10/07 01:38:43;;;;;;;13.23;2.40;;;;;;;12.06;81.33;102122.91;5021199;28;20061;-64
2021/10/07 01:41:10;;;;;;;9.80;2.28;;;;;;;12.22;80.51;102108.66;5055571;28;20060;-64
2021/10/07 01:43:37;;;;;;;10.77;2.70;;;;;;;12.24;80.55;102108.34;5055715;28;20048;-64
2021/10/07 01:46:05;;;;;;;9.55;2.35;;;;;;;12.46;79.28;102111.47;5054379;28;20048;-65
2021/10/07 01:48:32;;;;;;;14.18;2.90;;;;;;;12.32;79.59;102114.09;5055667;28;20045;-65
2021/10/07 01:51:00;;;;;;;12.85;2.85;;;;;;;12.27;80.01;102108.59;5055822;28;20056;-64
2021/10/07 01:53:28;;;;;;;16.85;3.10;;;;;;;12.29;80.14;102111.91;5055916;28;20056;-64
2021/10/07 01:55:55;;;;;;;16.67;2.70;;;;;;;12.33;80.06;102109.38;5055669;28;20049;-65
2021/10/07 01:58:25;;;;;;;12.90;2.85;;;;;;;12.62;78.79;102107.44;5055382;28;20408;-65
2021/10/07 02:00:52;;;;;;;12.10;2.78;;;;;;;12.71;77.82;102105.66;5054072;28;20060;-64
2021/10/07 02:03:20;;;;;;;14.88;2.85;;;;;;;12.17;79.99;102107.88;5053346;28;20056;-64
2021/10/07 02:05:47;;;;;;;9.38;2.33;;;;;;;12.32;79.93;102108.56;5015448;28;20481;-65
2021/10/07 02:08:14;;;;;;;12.95;3.22;;;;;;;12.27;80.28;102111.38;5014589;28;20065;-64
2021/10/07 02:10:42;;;;;;;13.73;2.90;;;;;;;12.48;79.59;102109.25;5015737;28;20501;-65
2021/10/07 02:13:15;;;;;;;13.90;2.67;;;;;;;12.31;79.72;102104.16;4984028;28;20053;-65
2021/10/07 02:15:46;;;;;;;15.10;3.38;;;;;;;12.28;79.97;102099.22;5014749;28;20058;-65
2021/10/07 02:18:16;;;;;;;10.93;2.60;;;;;;;12.33;79.96;102098.31;5014840;28;20050;-64
2021/10/07 02:20:43;;;;;;;11.93;2.40;;;;;;;12.08;80.75;102101.34;5014102;28;20050;-64
2021/10/07 02:23:10;;;;;;;11.93;2.30;;;;;;;12.25;80.34;102102.56;5015698;28;20057;-66
2021/10/07 02:25:37;;;;;;;18.48;3.10;;;;;;;12.13;80.59;102098.53;5014069;28;20069;-65
2021/10/07 02:28:05;;;;;;;11.82;3.40;;;;;;;11.79;82.36;102089.41;5015292;28;20050;-65
2021/10/07 02:30:32;;;;;;;13.85;3.00;;;;;;;11.65;83.27;102089.25;5015057;28;20058;-65
2021/10/07 02:33:02;;;;;;;16.75;3.28;;;;;;;11.77;83.36;102092.47;5015416;28;20061;-65
2021/10/07 02:35:43;;;;;;;14.98;3.45;;;;;;;11.89;82.84;102086.59;5015799;28;20056;-65
2021/10/07 02:38:13;;;;;;;16.25;3.33;;;;;;;12.10;82.04;102090.84;4998637;28;20057;-64
2021/10/07 02:40:40;;;;;;;21.67;3.08;;;;;;;12.10;81.79;102090.84;5050664;28;20045;-64
2021/10/07 02:43:07;;;;;;;13.57;2.80;;;;;;;12.03;81.62;102090.34;5053567;28;20403;-64
2021/10/07 02:45:35;;;;;;;15.20;2.80;;;;;;;11.76;82.75;102096.38;5052886;28;20064;-64
2021/10/07 02:48:02;;;;;;;13.00;2.80;;;;;;;12.03;82.22;102088.38;5036605;28;20049;-65
2021/10/07 02:50:30;;;;;;;14.05;2.85;;;;;;;12.10;81.29;102088.06;5053005;28;20052;-64
2021/10/07 02:52:57;;;;;;;12.40;2.58;;;;;;;12.06;81.54;102098.03;5054793;28;20618;-65
2021/10/07 02:55:24;;;;;;;16.63;3.60;;;;;;;11.85;82.08;102093.81;5054539;28;20049;-65
2021/10/07 02:57:51;;;;;;;13.65;3.33;;;;;;;11.99;82.21;102097.56;5054525;28;20049;-65
2021/10/07 03:00:19;;;;;;;11.50;2.95;;;;;;;11.98;82.07;102099.47;5054168;28;20068;-64
2021/10/07 03:02:47;;;;;;;17.80;4.05;;;;;;;11.89;82.57;102094.88;5036990;28;20056;-64
2021/10/07 03:05:14;;;;;;;14.18;2.97;;;;;;;11.86;82.42;102092.69;5034907;28;20053;-64
2021/10/07 03:07:41;;;;;;;13.75;3.17;;;;;;;12.12;81.92;102085.81;5015006;28;20588;-64
2021/10/07 03:10:09;;;;;;;14.23;3.35;;;;;;;12.08;81.21;102093.06;5014429;28;20057;-64
2021/10/07 03:12:37;;;;;;;14.30;3.00;;;;;;;12.25;80.77;102093.44;5015143;28;20087;-64
2021/10/07 03:15:05;;;;;;;19.27;4.07;;;;;;;12.32;80.28;102107.75;5014933;28;20327;-65
2021/10/07 03:17:32;;;;;;;9.80;2.67;;;;;;;12.44;79.65;102113.69;5014668;28;20050;-64
2021/10/07 03:19:59;;;;;;;16.95;2.72;;;;;;;12.27;80.15;102110.56;5014819;28;20042;-64
2021/10/07 03:22:27;;;;;;;18.38;3.60;;;;;;;12.21;80.04;102114.47;5015610;28;20424;-65
2021/10/07 03:24:54;;;;;;;11.85;2.92;;;;;;;12.02;81.53;102105.25;5013214;28;20042;-64
2021/10/07 03:27:22;;;;;;;12.63;2.92;;;;;;;12.19;80.96;102108.41;5014733;28;20057;-65
2021/10/07 03:29:51;;;;;;;10.20;2.67;;;;;;;12.28;80.30;102112.19;5015136;28;20069;-65
2021/10/07 03:32:19;;;;;;;16.63;3.30;;;;;;;12.09;80.69;102114.88;4997165;28;20058;-65
2021/10/07 03:34:46;;;;;;;15.52;2.90;;;;;;;12.06;81.32;102112.69;5013329;28;20362;-65
2021/10/07 03:37:14;;;;;;;10.43;3.10;;;;;;;11.87;82.09;102111.72;5029507;28;20080;-64
2021/10/07 03:39:41;;;;;;;11.88;2.90;;;;;;;12.13;81.26;102118.66;5051039;28;20049;-64
2021/10/07 03:42:08;;;;;;;13.65;3.65;;;;;;;12.19;80.65;102116.69;5056685;28;20076;-64
2021/10/07 03:44:36;;;;;;;14.00;3.38;;;;;;;12.19;80.53;102119.44;5056574;28;20040;-64
2021/10/07 03:47:03;;;;;;;15.43;3.53;;;;;;;12.02;81.24;102116.28;5057989;28;20048;-65
2021/10/07 03:49:31;;;;;;;11.13;4.00;;;;;;;11.85;81.59;102125.00;5058356;28;20049;-65
2021/10/07 03:52:00;;;;;;;16.02;3.28;;;;;;;11.74;82.51;102119.81;5040745;28;20492;-65
2021/10/07 03:54:27;;;;;;;12.52;3.00;;;;;;;11.78;82.23;102124.50;5057845;28;20056;-64
2021/10/07 03:56:57;;;;;;;16.02;3.75;;;;;;;11.67;82.47;102124.84;5057906;28;20045;-65
2021/10/07 03:59:28;;;;;;;14.93;3.28;;;;;;;11.95;81.97;102129.59;5040462;28;20057;-65
2021/10/07 04:01:55;;;;;;;10.40;3.38;;;;;;;11.76;82.43;102125.88;5006920;28;20057;-65
2021/10/07 04:04:23;;;;;;;17.23;3.60;;;;;;;11.62;82.85;102124.84;5057606;28;20045;-65
2021/10/07 04:06:50;;;;;;;16.33;3.38;;;;;;;11.50;83.32;102130.72;5034122;28;20143;-66
2021/10/07 04:09:17;;;;;;;10.10;3.50;;;;;;;11.69;83.43;102139.19;5037875;28;20476;-65
2021/10/07 04:11:44;;;;;;;10.07;2.80;;;;;;;11.74;82.65;102136.38;5038094;28;20412;-65
2021/10/07 04:14:12;;;;;;;24.65;3.45;;;;;;;11.63;83.22;102137.56;5037570;28;20057;-66
2021/10/07 04:16:39;;;;;;;20.10;3.28;;;;;;;11.63;83.10;102137.56;5037270;28;20064;-65
2021/10/07 04:19:08;;;;;;;18.25;3.70;;;;;;;11.60;82.94;102133.41;5037514;28;20041;-65
2021/10/07 04:21:35;;;;;;;10.70;3.08;;;;;;;11.65;82.90;102138.94;5037573;28;20046;-65
2021/10/07 04:24:03;;;;;;;10.48;3.03;;;;;;;11.95;81.92;102135.13;5037542;28;20046;-65
2021/10/07 04:26:32;;;;;;;11.65;3.25;;;;;;;11.96;81.27;102132.09;5037189;28;20057;-65
2021/10/07 04:28:59;;;;;;;18.57;3.57;;;;;;;11.94;81.42;102139.03;5037326;28;20053;-65
2021/10/07 04:31:26;;;;;;;11.43;2.88;;;;;;;11.84;81.71;102137.16;5036227;28;20057;-64
2021/10/07 04:33:54;;;;;;;12.18;2.75;;;;;;;11.84;81.64;102136.31;5036231;28;20045;-64
2021/10/07 04:36:21;;;;;;;14.18;3.85;;;;;;;11.76;81.92;102132.25;5035748;28;20049;-65
2021/10/07 04:38:49;;;;;;;15.40;3.42;;;;;;;11.69;82.57;102131.75;5040753;28;20048;-64
2021/10/07 04:41:16;;;;;;;12.95;2.97;;;;;;;11.64;82.59;102129.03;5057215;28;20049;-64
2021/10/07 04:43:44;;;;;;;20.55;3.70;;;;;;;11.69;82.35;102136.44;5055976;28;20048;-64
2021/10/07 04:46:11;;;;;;;14.90;3.33;;;;;;;11.92;81.89;102138.47;5057005;28;20071;-65
2021/10/07 04:48:38;;;;;;;21.40;3.80;;;;;;;11.81;81.57;102132.22;5055806;28;20060;-65
2021/10/07 04:51:06;;;;;;;19.40;3.70;;;;;;;11.70;82.18;102138.09;5057340;28;20053;-65
2021/10/07 04:53:34;;;;;;;11.85;2.88;;;;;;;11.69;82.44;102136.44;5023281;28;20052;-64
2021/10/07 04:56:04;;;;;;;11.50;3.03;;;;;;;11.65;82.76;102140.88;5040960;28;20397;-65
2021/10/07 04:58:35;;;;;;;15.82;3.97;;;;;;;11.56;83.17;102134.28;5056117;28;20057;-65
2021/10/07 05:01:02;;;;;;;11.85;3.17;;;;;;;11.63;83.49;102135.59;5056862;28;20113;-64
2021/10/07 05:03:29;;;;;;;17.40;3.38;;;;;;;11.76;82.63;102132.25;5056775;28;20435;-65
2021/10/07 05:05:57;;;;;;;13.68;3.78;;;;;;;11.72;82.45;102138.59;5051510;28;20071;-65
2021/10/07 05:08:24;;;;;;;14.05;3.15;;;;;;;11.67;82.76;102144.16;5029156;28;20519;-65
2021/10/07 05:10:54;;;;;;;10.75;3.15;;;;;;;11.53;83.77;102148.63;5027758;28;20057;-64
2021/10/07 05:13:21;;;;;;;12.68;3.63;;;;;;;11.75;82.89;102147.13;5036745;28;20064;-65
2021/10/07 05:15:48;;;;;;;15.98;3.33;;;;;;;11.71;82.77;102153.53;5036401;28;20045;-64
2021/10/07 05:18:17;;;;;;;10.27;3.03;;;;;;;11.84;82.53;102150.13;5018850;28;20053;-65
2021/10/07 05:20:45;;;;;;;10.93;2.90;;;;;;;11.61;82.41;102153.56;5036669;28;20053;-65
2021/10/07 05:23:13;;;;;;;12.35;3.03;;;;;;;11.55;83.31;102155.53;5036616;28;20060;-65
2021/10/07 05:25:40;;;;;;;19.50;4.78;;;;;;;11.74;82.32;102155.72;5036043;28;20469;-65
2021/10/07 05:28:08;;;;;;;11.30;3.40;;;;;;;11.72;82.23;102164.28;5030641;28;20048;-65
2021/10/07 05:30:35;;;;;;;16.65;3.83;;;;;;;11.63;82.27;102167.91;5036170;28;20053;-64
2021/10/07 05:33:02;;;;;;;15.75;3.25;;;;;;;11.59;82.73;102169.59;5034403;28;20058;-64
2021/10/07 05:35:30;;;;;;;13.57;3.50;;;;;;;11.71;82.12;102170.09;5035870;28;20045;-65
2021/10/07 05:37:57;;;;;;;14.48;3.75;;;;;;;11.72;82.51;102164.28;5036250;28;20041;-65
2021/10/07 05:40:25;;;;;;;14.35;3.70;;;;;;;11.40;83.86;102174.94;5052607;28;20061;-65
2021/10/07 05:42:53;;;;;;;12.35;4.10;;;;;;;11.42;83.76;102180.97;5054985;28;20057;-65
2021/10/07 05:45:20;;;;;;;17.65;3.47;;;;;;;11.42;83.82;102174.66;5030950;28;20412;-64
2021/10/07 05:47:47;;;;;;;16.35;3.42;;;;;;;11.34;84.04;102179.66;5024660;28;20060;-63
2021/10/07 05:50:14;;;;;;;23.13;4.07;;;;;;;11.46;83.56;102178.47;5034350;28;20571;-65
2021/10/07 05:52:44;;;;;;;15.82;3.25;;;;;;;11.50;83.52;102171.28;5017808;28;20406;-67
2021/10/07 05:55:30;;;;;;;13.93;3.53;;;;;;;11.45;83.58;102185.94;5034729;28;20048;-65
2021/10/07 05:57:58;;;;;;;19.00;4.80;;;;;;;11.43;83.73;102184.56;5036157;28;20056;-65
2021/10/07 06:00:26;;;;;;;12.73;3.40;;;;;;;11.55;83.37;102182.28;5035377;28;20053;-65
2021/10/07 06:02:53;;;;;;;16.85;4.10;;;;;;;11.46;83.41;102193.09;5050787;28;20060;-64
2021/10/07 06:05:20;;;;;;;12.02;3.70;;;;;;;11.31;84.12;102191.22;5032656;28;20041;-65
2021/10/07 06:07:47;;;;;;;12.10;3.65;;;;;;;11.12;85.16;102198.47;5040729;28;20057;-64
2021/10/07 06:10:15;;;;;;;13.68;3.90;;;;;;;11.49;84.12;102200.00;5034305;28;20053;-64
2021/10/07 06:12:43;;;;;;;10.90;3.85;;;;;;;11.34;84.26;102201.72;5035765;28;20469;-63
2021/10/07 06:15:11;;;;;;;16.60;5.20;;;;;;;11.29;84.84;102200.91;5035426;28;20064;-65
2021/10/07 06:17:39;;;;;;;16.77;4.38;;;;;;;11.31;84.38;102196.75;5034112;28;20410;-65
2021/10/07 06:20:53;;;;;;;14.38;4.35;;;;;;;11.33;84.37;102205.56;5034069;28;20083;-65
2021/10/07 06:22:55;;;;;;;16.55;4.50;;;;;;;11.27;84.42;102203.97;5030401;28;20061;-65
2021/10/07 06:25:23;;;;;;;11.75;3.78;;;;;;;11.46;84.63;102206.06;5032363;28;20041;-64
2021/10/07 06:27:50;;;;;;;18.77;4.50;;;;;;;11.65;83.52;102209.88;5034558;28;20586;-65
2021/10/07 06:30:21;;;;;;;16.27;3.88;;;;;;;11.50;83.53;102199.72;5033373;28;20064;-64
2021/10/07 06:32:51;;;;;;;14.32;4.07;;;;;;;11.65;83.23;102196.91;4999545;28;20076;-64
2021/10/07 06:35:19;;;;;;;13.93;4.03;;;;;;;11.62;83.26;102204.88;5034232;28;20041;-64
2021/10/07 06:37:46;;;;;;;14.98;4.38;;;;;;;11.99;82.49;102195.03;5033486;28;20049;-63
2021/10/07 06:40:13;;;;;;;18.60;4.63;;;;;;;12.22;81.28;102194.28;5033144;28;20056;-70
2021/10/07 06:42:41;;;;;;;13.35;4.65;;;;;;;12.57;80.01;102192.34;5046644;28;20053;-65
2021/10/07 06:45:10;;;;;;;20.90;4.13;;;;;;;12.75;80.33;102192.44;5031661;28;20042;-63
2021/10/07 06:47:38;;;;;;;15.77;4.32;;;;;;;12.53;79.54;102194.88;5033326;28;20053;-64
2021/10/07 06:50:08;;;;;;;20.08;4.15;;;;;;;12.61;80.89;102190.63;5032514;28;20044;-65
2021/10/07 06:52:37;;;;;;;14.52;3.58;;;;;;;12.57;80.50;102197.88;5025724;28;20068;-64
2021/10/07 06:55:05;;;;;;;17.42;4.22;;;;;;;12.66;80.14;102196.94;5012261;28;20389;-65
2021/10/07 06:57:33;;;;;;;17.25;4.32;;;;;;;12.40;79.13;102210.19;5031075;28;20737;-66
2021/10/07 07:00:00;;;;;;;16.40;4.20;;;;;;;12.40;79.35;102212.94;5034259;28;20049;-67
2021/10/07 07:02:27;;;;;;;17.88;4.60;;;;;;;12.43;79.46;102212.34;5033536;28;20053;-67
2021/10/07 07:04:55;;;;;;;19.75;4.80;;;;;;;12.40;79.47;102207.41;5032856;28;20057;-65
2021/10/07 07:07:22;;;;;;;16.02;4.57;;;;;;;12.38;79.68;102215.16;5033684;28;20056;-65
2021/10/07 07:09:49;;;;;;;17.73;5.03;;;;;;;12.69;79.03;102212.97;5041430;28;20049;-66
2021/10/07 07:12:37;;;;;;;14.18;4.57;;;;;;;12.81;78.04;102212.56;5033595;28;20048;-68
2021/10/07 07:15:04;;;;;;;16.85;5.30;;;;;;;12.79;78.33;102220.31;5032188;28;20060;-67
2021/10/07 07:17:32;;;;;;;14.63;4.15;;;;;;;12.48;79.58;102223.34;5034110;28;20500;-67
2021/10/07 07:20:00;;;;;;;13.35;4.65;;;;;;;12.51;79.91;102226.66;5038345;28;20060;-67
2021/10/07 07:22:27;;;;;;;14.38;5.22;;;;;;;12.59;79.22;102228.81;5037191;28;20053;-67
2021/10/07 07:24:55;;;;;;;12.48;4.80;;;;;;;12.57;79.62;102228.28;5028764;28;20049;-66
2021/10/07 07:27:25;;;;;;;22.98;5.07;;;;;;;12.72;79.30;102228.13;5034538;28;20045;-67
2021/10/07 07:29:53;;;;;;;23.13;5.15;;;;;;;13.04;78.39;102236.69;5038847;28;20053;-66
2021/10/07 07:32:20;;;;;;;22.77;6.28;;;;;;;13.06;77.57;102226.13;5038335;28;20046;-68
2021/10/07 07:34:47;;;;;;;15.80;5.10;;;;;;;13.05;77.61;102235.56;5038410;28;20072;-67
2021/10/07 07:37:19;;;;;;;17.25;5.25;;;;;;;12.83;78.28;102230.50;5041009;28;20525;-66
2021/10/07 07:39:46;;;;;;;26.10;6.55;;;;;;;12.96;78.24;102228.97;5047639;28;20060;-67
2021/10/07 07:42:13;;;;;;;17.23;5.38;;;;;;;12.67;79.23;102226.25;5042551;28;20058;-67
2021/10/07 07:44:42;;;;;;;18.00;5.28;;;;;;;12.72;79.67;102233.66;5036022;28;20037;-70
2021/10/07 07:47:09;;;;;;;28.67;4.88;;;;;;;12.86;79.02;102229.94;5031746;28;20519;-67
2021/10/07 07:49:38;;;;;;;16.23;4.78;;;;;;;13.13;78.21;102229.38;5035790;28;20053;-66
2021/10/07 07:52:07;;;;;;;16.77;4.93;;;;;;;13.55;76.63;102235.78;5035953;28;20520;-66
2021/10/07 07:54:34;;;;;;;19.90;4.88;;;;;;;13.73;75.57;102234.19;5036107;28;20045;-66
2021/10/07 07:57:02;;;;;;;18.48;5.45;;;;;;;13.54;75.62;102245.22;5034985;28;20524;-66
2021/10/07 07:59:29;;;;;;;19.70;5.47;;;;;;;13.31;77.00;102232.22;5035388;28;20057;-67
2021/10/07 08:01:57;;;;;;;22.15;5.45;;;;;;;13.54;76.15;102234.16;5036174;28;20057;-66
2021/10/07 08:04:24;;;;;;;25.27;5.35;;;;;;;13.96;75.00;102236.06;5036149;28;20053;-68
2021/10/07 08:06:52;;;;;;;20.83;4.82;;;;;;;14.14;74.14;102238.00;5036620;28;20566;-66
2021/10/07 08:09:19;;;;;;;20.30;4.95;;;;;;;14.24;73.99;102239.81;5036560;28;20049;-68
2021/10/07 08:11:49;;;;;;;21.38;5.07;;;;;;;14.33;73.44;102238.84;5036787;28;20042;-67
2021/10/07 08:14:16;;;;;;;23.02;5.70;;;;;;;14.30;72.32;102235.84;5036869;28;20053;-68
2021/10/07 08:16:45;;;;;;;20.60;5.20;;;;;;;14.68;71.53;102239.38;5028711;28;20500;-66
2021/10/07 08:19:12;;;;;;;28.00;5.60;;;;;;;14.40;72.42;102250.38;5036262;28;20400;-66
2021/10/07 08:21:41;;;;;;;20.92;5.80;;;;;;;14.09;73.52;102243.63;5037097;28;20049;-68
2021/10/07 08:24:11;;;;;;;25.77;5.53;;;;;;;14.25;73.83;102246.97;5036343;28;20052;-66
2021/10/07 08:26:39;;;;;;;23.92;5.55;;;;;;;14.38;73.54;102249.03;5035084;28;20049;-66
2021/10/07 08:29:06;;;;;;;27.98;6.43;;;;;;;14.49;73.24;102253.28;5037146;28;20056;-66
2021/10/07 08:31:35;;;;;;;21.48;7.38;;;;;;;14.74;72.86;102252.03;5036320;28;20042;-67
2021/10/07 08:34:02;;;;;;;22.65;5.40;;;;;;;14.64;72.43;102251.06;5036602;28;20064;-66
2021/10/07 08:36:32;;;;;;;16.50;4.55;;;;;;;14.72;72.77;102262.59;5015583;28;20405;-66
2021/10/07 08:38:59;;;;;;;22.45;4.88;;;;;;;14.93;71.83;102250.00;5042620;28;20049;-66
2021/10/07 08:41:27;;;;;;;21.42;4.82;;;;;;;14.96;71.37;102253.00;5036455;28;20068;-66
2021/10/07 08:43:55;;;;;;;16.83;4.68;;;;;;;15.11;71.34;102263.00;5037128;28;20136;-65
2021/10/07 08:46:23;;;;;;;17.63;6.05;;;;;;;15.30;70.79;102263.75;5035742;28;20076;-67
2021/10/07 08:48:51;;;;;;;21.27;5.40;;;;;;;15.19;70.99;102257.56;5035175;28;20057;-66
2021/10/07 08:51:19;;;;;;;17.80;4.78;;;;;;;14.59;72.04;102256.69;5035563;28;20053;-67
2021/10/07 08:53:46;;;;;;;21.80;5.53;;;;;;;14.37;74.16;102256.53;5036026;28;20060;-65
2021/10/07 08:56:14;;;;;;;19.98;5.43;;;;;;;14.47;74.06;102250.00;5017370;28;20052;-66
2021/10/07 08:58:41;;;;;;;21.27;5.43;;;;;;;14.39;74.00;102247.91;5036052;28;20042;-66
2021/10/07 09:01:45;;;;;;;25.05;6.18;;;;;;;14.24;74.24;102250.88;5035737;28;20053;-65
2021/10/07 09:04:17;;;;;;;18.77;5.03;;;;;;;14.00;75.76;102253.72;5035560;28;20049;-65
2021/10/07 09:06:52;;;;;;;19.83;5.10;;;;;;;14.38;74.85;102258.16;5033340;28;20057;-65
2021/10/07 09:09:27;;;;;;;22.02;6.07;;;;;;;14.44;74.10;102251.41;5038569;28;20523;-66
2021/10/07 09:11:57;;;;;;;22.05;4.95;;;;;;;14.48;74.07;102254.41;5038615;28;20661;-67
2021/10/07 09:14:45;;;;;;;17.25;6.78;;;;;;;14.81;73.41;102255.22;5036696;28;20057;-65
2021/10/07 09:17:16;;;;;;;16.92;5.90;;;;;;;14.53;73.49;102257.94;5033861;28;20037;-66
2021/10/07 09:19:45;;;;;;;20.73;5.93;;;;;;;14.87;72.96;102262.34;5035459;28;20053;-67
2021/10/07 09:22:25;;;;;;;19.13;5.30;;;;;;;15.12;72.17;102262.69;5034863;28;20061;-66
2021/10/07 09:24:55;;;;;;;21.15;5.10;;;;;;;15.29;71.73;102257.34;5034775;28;20045;-67
2021/10/07 09:27:27;;;;;;;25.83;5.78;;;;;;;15.09;71.43;102265.25;5034726;28;20049;-66
2021/10/07 09:29:56;;;;;;;22.45;6.00;;;;;;;15.40;71.44;102252.47;5036083;28;20045;-66
2021/10/07 09:32:45;;;;;;;23.63;6.03;;;;;;;15.15;72.08;102248.19;5036444;28;20045;-66
2021/10/07 09:35:15;;;;;;;26.05;6.38;;;;;;;16.27;68.15;102237.16;5002375;28;20057;-64
2021/10/07 09:37:44;;;;;;;23.77;5.68;;;;;;;15.67;69.45;102239.38;5035239;28;20065;-69
2021/10/07 09:40:22;;;;;;;25.27;5.47;;;;;;;15.19;70.55;102231.75;5048654;28;20056;-67
2021/10/07 09:43:00;;;;;;;18.08;5.68;;;;;;;14.89;71.82;102232.34;5026917;28;20064;-69
2021/10/07 09:45:33;;;;;;;23.50;6.10;;;;;;;15.25;71.22;102241.63;5015156;28;20049;-67
2021/10/07 09:48:07;;;;;;;20.95;6.82;;;;;;;15.08;71.87;102244.19;5034333;28;20088;-66
2021/10/07 09:50:35;;;;;;;21.73;6.35;;;;;;;15.13;71.17;102242.13;5035262;28;20071;-65
2021/10/07 09:53:03;;;;;;;21.27;6.28;;;;;;;14.90;72.72;102242.31;5034749;28;20416;-68
2021/10/07 09:55:37;;;;;;;22.73;4.78;;;;;;;15.20;71.26;102247.28;5035146;28;20060;-68
2021/10/07 09:58:12;;;;;;;23.33;5.95;;;;;;;15.29;71.51;102246.25;5035393;28;20064;-68
2021/10/07 10:00:47;;;;;;;20.45;5.45;;;;;;;15.66;69.72;102240.53;5034781;28;20057;-67
2021/10/07 10:03:16;;;;;;;16.67;4.53;;;;;;;15.96;69.60;102235.41;5039848;28;20079;-66
2021/10/07 10:05:44;;;;;;;16.73;3.97;;;;;;;16.31;68.45;102227.06;5036061;28;20080;-67
2021/10/07 10:08:17;;;;;;;17.30;4.35;;;;;;;16.06;68.10;102230.44;5015904;28;20041;-66
2021/10/07 10:10:46;;;;;;;16.20;4.55;;;;;;;15.53;70.10;102235.00;5033761;28;20049;-63
2021/10/07 10:13:15;;;;;;;17.23;4.28;;;;;;;15.54;69.92;102228.28;5033582;28;20068;-66
2021/10/07 10:15:43;;;;;;;19.45;3.65;;;;;;;16.01;68.64;102224.19;5013904;28;20141;-65
2021/10/07 10:18:13;;;;;;;18.92;4.10;;;;;;;15.90;69.02;102229.13;5033193;28;20038;-66
2021/10/07 10:20:48;;;;;;;19.25;4.75;;;;;;;15.64;69.94;102226.13;5051678;28;20055;-67
2021/10/07 10:23:21;;;;;;;14.88;4.55;;;;;;;15.99;69.55;102229.25;5033597;28;20057;-63
2021/10/07 10:25:56;;;;;;;20.27;4.35;;;;;;;16.30;68.86;102225.41;5034094;28;20049;-67
2021/10/07 10:28:30;;;;;;;17.63;4.28;;;;;;;16.10;68.16;102233.41;5031723;28;20105;-66
2021/10/07 10:31:10;;;;;;;21.05;4.68;;;;;;;15.90;69.26;102229.13;5033660;28;20045;-66
2021/10/07 10:33:40;;;;;;;16.00;4.35;;;;;;;15.90;67.91;102228.34;5032081;28;20050;-65
2021/10/07 10:36:38;;;;;;;16.65;4.97;;;;;;;15.64;68.78;102228.88;5033287;28;20464;-68
2021/10/07 10:39:09;;;;;;;16.48;4.60;;;;;;;15.71;68.74;102236.78;5018402;28;20060;-70
2021/10/07 10:41:51;;;;;;;18.70;4.22;;;;;;;16.00;67.95;102231.72;5042008;28;20164;-70
2021/10/07 10:44:28;;;;;;;17.75;3.90;;;;;;;16.34;66.41;102226.44;5016755;28;20049;-70
2021/10/07 10:47:08;;;;;;;15.27;4.18;;;;;;;16.54;67.15;102220.41;5034889;28;20049;-68
2021/10/07 10:49:42;;;;;;;19.47;5.73;;;;;;;16.50;64.70;102216.59;5035391;28;20057;-69
2021/10/07 10:52:13;;;;;;;13.90;4.30;;;;;;;16.34;65.01;102220.88;5035064;28;20648;-66
2021/10/07 10:54:47;;;;;;;16.17;4.85;;;;;;;16.31;64.30;102220.69;5015971;28;20044;-66
2021/10/07 10:57:36;;;;;;;15.40;3.60;;;;;;;16.39;63.63;102219.91;5029986;28;20050;-64
2021/10/07 11:00:34;;;;;;;16.88;4.03;;;;;;;16.79;63.21;102216.13;5033027;28;20061;-65
2021/10/07 11:03:07;;;;;;;20.30;4.03;;;;;;;16.65;63.29;102212.59;5034532;28;20057;-69
2021/10/07 11:05:42;;;;;;;18.20;5.65;;;;;;;16.50;63.45;102224.94;5034675;28;20057;-65
2021/10/07 11:08:20;;;;;;;36.47;13.45;;;;;;;16.17;64.12;102220.75;5033579;28;20046;-65
2021/10/07 11:11:05;;;;;;;22.45;7.50;;;;;;;16.26;64.38;102223.59;5033456;28;20053;-65
2021/10/07 11:13:34;;;;;;;16.23;4.20;;;;;;;16.25;64.50;102222.75;5014053;28;20405;-66
2021/10/07 11:16:05;;;;;;;12.10;3.67;;;;;;;16.57;63.67;102218.94;5029276;28;20053;-65
2021/10/07 11:18:35;;;;;;;16.90;3.50;;;;;;;16.95;62.84;102216.53;5034943;28;20408;-67
2021/10/07 11:21:09;;;;;;;14.25;3.58;;;;;;;17.18;61.71;102216.16;5033833;28;20049;-66
2021/10/07 11:23:36;;;;;;;13.18;3.33;;;;;;;16.83;62.67;102212.41;5033029;28;20041;-66
2021/10/07 11:26:04;;;;;;;15.02;3.58;;;;;;;16.50;63.66;102215.78;5034076;28;20540;-66
2021/10/07 11:28:52;;;;;;;17.10;3.85;;;;;;;16.37;63.35;102223.00;5033033;28;20050;-66
2021/10/07 11:31:21;;;;;;;12.50;3.03;;;;;;;16.39;62.68;102219.91;5033466;28;20057;-65